createdAt,value
2022-08-19T00:01:28.559Z,100520.13
2022-08-19T00:04:00.817Z,100522.47
2022-08-19T00:06:29.165Z,100528.91
2022-08-19T00:08:56.645Z,100528.97
2022-08-19T00:11:26.033Z,100526.25
2022-08-19T00:13:53.660Z,100520.19
2022-08-19T00:16:25.194Z,100522.88
2022-08-19T00:18:54.503Z,100521.88
2022-08-19T00:21:21.075Z,100537.41
2022-08-19T00:23:47.742Z,100541.28
2022-08-19T00:26:15.115Z,100556.50
2022-08-19T00:28:42.170Z,100550.38
2022-08-19T00:31:11.887Z,100555.47
2022-08-19T00:33:39.090Z,100552.56
2022-08-19T00:36:07.832Z,100551.06
2022-08-19T00:38:37.535Z,100548.06
2022-08-19T00:41:06.125Z,100551.00
2022-08-19T00:43:32.787Z,100553.50
2022-08-19T00:45:59.301Z,100554.03
2022-08-19T00:48:26.078Z,100556.19
2022-08-19T00:50:55.312Z,100555.69
2022-08-19T00:56:11.802Z,100558.22
2022-08-19T00:58:38.411Z,100553.50
2022-08-19T01:01:06.381Z,100549.53
2022-08-19T01:03:57.207Z,100550.03
2022-08-19T01:06:21.117Z,100547.38
2022-08-19T01:08:47.630Z,100555.88
2022-08-19T01:11:17.488Z,100554.63
2022-08-19T01:13:48.885Z,100554.81
2022-08-19T01:16:18.224Z,100551.53
2022-08-19T01:18:44.818Z,100542.47
2022-08-19T01:21:23.763Z,100542.94
2022-08-19T01:23:50.275Z,100552.84
2022-08-19T01:26:21.112Z,100549.22
2022-08-19T01:28:49.682Z,100554.22
2022-08-19T01:31:28.460Z,100541.06
2022-08-19T01:33:57.946Z,100548.94
2022-08-19T01:36:32.241Z,100545.13
2022-08-19T01:39:05.646Z,100540.56
2022-08-19T01:41:37.808Z,100539.78
2022-08-19T01:44:18.120Z,100533.91
2022-08-19T01:46:50.765Z,100530.84
2022-08-19T01:49:24.510Z,100524.44
2022-08-19T01:52:50.411Z,100549.34
2022-08-19T01:54:54.954Z,100534.19
2022-08-19T01:57:24.037Z,100546.31
2022-08-19T01:59:56.742Z,100531.56
2022-08-19T02:02:28.229Z,100542.16
2022-08-19T02:05:03.076Z,100535.69
2022-08-19T02:07:37.999Z,100531.91
2022-08-19T02:10:19.277Z,100548.03
2022-08-19T02:12:46.166Z,100533.75
2022-08-19T02:15:14.857Z,100540.16
2022-08-19T02:17:41.933Z,100524.59
2022-08-19T02:20:14.168Z,100519.22
2022-08-19T02:22:57.611Z,100538.44
2022-08-19T02:25:24.518Z,100510.72
2022-08-19T02:27:51.180Z,100525.03
2022-08-19T02:30:20.550Z,100519.88
2022-08-19T02:32:47.627Z,100522.72
2022-08-19T02:35:22.487Z,100528.41
2022-08-19T02:38:09.800Z,100522.88
2022-08-19T02:40:39.894Z,100523.03
2022-08-19T02:43:33.630Z,100521.84
2022-08-19T02:46:41.595Z,100510.28
2022-08-19T02:49:34.573Z,100533.34
2022-08-19T02:52:16.954Z,100524.66
2022-08-19T02:55:23.882Z,100531.19
2022-08-19T02:58:28.244Z,100533.41
2022-08-19T03:01:45.810Z,100530.56
2022-08-19T03:05:48.084Z,100522.88
2022-08-19T03:10:56.306Z,100535.31
2022-08-19T03:13:26.781Z,100534.91
2022-08-19T03:16:15.956Z,100530.41
2022-08-19T03:18:45.073Z,100535.44
2022-08-19T03:21:19.371Z,100537.09
2022-08-19T03:23:52.399Z,100528.59
2022-08-19T03:26:19.212Z,100532.72
2022-08-19T03:28:57.983Z,100532.50
2022-08-19T03:31:55.943Z,100548.59
2022-08-19T03:34:40.183Z,100536.16
2022-08-19T03:37:14.128Z,100528.47
2022-08-19T03:39:50.775Z,100525.31
2022-08-19T03:42:45.398Z,100527.00
2022-08-19T03:45:23.579Z,100526.28
2022-08-19T03:48:11.627Z,100530.91
2022-08-19T03:50:52.667Z,100529.81
2022-08-19T03:53:31.221Z,100540.00
2022-08-19T03:56:38.601Z,100533.41
2022-08-19T03:59:14.347Z,100538.59
2022-08-19T04:04:24.240Z,100529.13
2022-08-19T04:06:56.475Z,100537.91
2022-08-19T04:09:25.197Z,100544.41
2022-08-19T04:11:56.814Z,100552.59
2022-08-19T04:14:26.130Z,100546.56
2022-08-19T04:16:56.361Z,100550.38
2022-08-19T04:19:24.018Z,100552.66
2022-08-19T04:24:35.022Z,100553.34
2022-08-19T04:27:07.713Z,100540.94
2022-08-19T04:29:34.474Z,100547.34
2022-08-19T04:32:08.939Z,100552.88
2022-08-19T04:34:36.428Z,100547.16
2022-08-19T04:37:22.971Z,100548.03
2022-08-19T04:40:08.007Z,100550.03
2022-08-19T04:42:40.118Z,100550.56
2022-08-19T04:45:14.652Z,100553.09
2022-08-19T04:47:46.962Z,100546.03
2022-08-19T04:50:20.083Z,100551.94
2022-08-19T04:52:47.428Z,100559.38
2022-08-19T04:55:20.784Z,100554.03
2022-08-19T04:57:54.668Z,100551.75
2022-08-19T05:00:21.206Z,100549.47
2022-08-19T05:02:50.353Z,100560.56
2022-08-19T05:05:17.076Z,100560.59
2022-08-19T05:07:43.893Z,100563.31
2022-08-19T05:10:10.826Z,100556.00
2022-08-19T05:12:37.841Z,100558.72
2022-08-19T05:15:05.524Z,100560.97
2022-08-19T05:17:36.276Z,100553.31
2022-08-19T05:20:26.115Z,100555.25
2022-08-19T05:22:53.437Z,100559.28
2022-08-19T05:25:21.446Z,100560.19
2022-08-19T05:27:48.600Z,100554.84
2022-08-19T05:30:15.719Z,100553.50
2022-08-19T05:32:42.835Z,100545.38
2022-08-19T05:35:12.118Z,100558.38
2022-08-19T05:37:40.951Z,100557.00
2022-08-19T05:40:08.573Z,100565.75
2022-08-19T05:42:35.138Z,100568.59
2022-08-19T05:45:01.719Z,100567.94
2022-08-19T05:47:28.357Z,100569.91
2022-08-19T05:49:57.439Z,100578.44
2022-08-19T05:52:25.576Z,100575.53
2022-08-19T05:54:55.982Z,100573.78
2022-08-19T05:57:23.739Z,100583.59
2022-08-19T05:59:53.097Z,100582.19
2022-08-19T06:02:25.962Z,100590.34
2022-08-19T06:04:56.422Z,100595.38
2022-08-19T06:07:23.146Z,100587.50
2022-08-19T06:09:58.995Z,100593.44
2022-08-19T06:12:29.867Z,100592.66
2022-08-19T06:15:00.767Z,100606.09
2022-08-19T06:17:30.126Z,100598.81
2022-08-19T06:19:57.197Z,100596.22
2022-08-19T06:22:23.899Z,100595.53
2022-08-19T06:24:53.641Z,100592.28
2022-08-19T06:27:22.949Z,100589.34
2022-08-19T06:29:49.747Z,100591.50
2022-08-19T06:32:17.726Z,100587.72
2022-08-19T06:34:45.928Z,100588.91
2022-08-19T06:37:13.309Z,100588.16
2022-08-19T06:39:41.694Z,100593.00
2022-08-19T06:42:13.990Z,100595.41
2022-08-19T06:44:43.218Z,100588.41
2022-08-19T06:47:14.672Z,100586.75
2022-08-19T06:49:42.540Z,100581.72
2022-08-19T06:52:13.670Z,100589.78
2022-08-19T06:54:56.044Z,100585.28
2022-08-19T06:57:25.265Z,100581.31
2022-08-19T06:59:52.131Z,100580.53
2022-08-19T07:02:19.702Z,100585.81
2022-08-19T07:04:46.252Z,100584.66
2022-08-19T07:07:21.005Z,100590.47
2022-08-19T07:09:57.947Z,100587.88
2022-08-19T07:12:30.225Z,100587.56
2022-08-19T07:14:58.685Z,100588.19
2022-08-19T07:17:25.856Z,100590.59
2022-08-19T07:19:54.404Z,100596.63
2022-08-19T07:22:24.175Z,100602.41
2022-08-19T07:24:52.005Z,100596.28
2022-08-19T07:27:24.126Z,100586.34
2022-08-19T07:29:55.867Z,100588.34
2022-08-19T07:32:24.005Z,100580.25
2022-08-19T07:34:50.576Z,100581.56
2022-08-19T07:37:17.378Z,100585.66
2022-08-19T07:39:44.180Z,100589.00
2022-08-19T07:42:14.659Z,100579.28
2022-08-19T07:44:42.190Z,100581.75
2022-08-19T07:47:49.810Z,100578.72
2022-08-19T07:50:07.890Z,100578.19
2022-08-19T07:52:35.803Z,100574.91
2022-08-19T07:55:04.918Z,100575.94
2022-08-19T07:57:32.739Z,100581.38
2022-08-19T07:59:59.864Z,100576.78
2022-08-19T08:02:26.469Z,100571.56
2022-08-19T08:05:11.597Z,100576.84
2022-08-19T08:07:56.959Z,100573.53
2022-08-19T08:10:24.254Z,100571.13
2022-08-19T08:13:09.408Z,100569.13
2022-08-19T08:15:42.737Z,100572.38
2022-08-19T08:18:10.793Z,100574.00
2022-08-19T08:20:37.452Z,100566.16
2022-08-19T08:23:22.863Z,100568.19
2022-08-19T08:25:50.170Z,100564.34
2022-08-19T08:28:18.070Z,100570.81
2022-08-19T08:30:49.047Z,100549.28
2022-08-19T08:33:30.154Z,100543.72
2022-08-19T08:36:01.644Z,100555.00
2022-08-19T08:38:36.928Z,100560.19
2022-08-19T08:41:18.807Z,100551.41
2022-08-19T08:43:49.170Z,100545.59
2022-08-19T08:46:42.487Z,100550.63
2022-08-19T08:49:21.442Z,100546.72
2022-08-19T08:52:00.084Z,100540.75
2022-08-19T08:54:32.535Z,100551.41
2022-08-19T08:57:01.751Z,100544.66
2022-08-19T08:59:36.228Z,100547.88
2022-08-19T09:02:02.819Z,100541.69
2022-08-19T09:04:30.171Z,100536.44
2022-08-19T09:07:33.869Z,100534.91
2022-08-19T09:10:12.956Z,100528.97
2022-08-19T09:12:55.134Z,100536.72
2022-08-19T09:15:33.485Z,100531.53
2022-08-19T09:18:07.112Z,100529.72
2022-08-19T09:20:35.104Z,100529.56
2022-08-19T09:23:01.875Z,100533.06
2022-08-19T09:25:29.526Z,100527.34
2022-08-19T09:27:57.934Z,100525.16
2022-08-19T09:30:31.973Z,100522.91
2022-08-19T09:32:58.800Z,100529.75
2022-08-19T09:35:28.339Z,100530.84
2022-08-19T09:37:57.667Z,100512.69
2022-08-19T09:40:28.083Z,100523.56
2022-08-19T09:42:58.184Z,100514.22
2022-08-19T09:45:25.006Z,100516.25
2022-08-19T09:47:54.117Z,100515.97
2022-08-19T09:50:21.854Z,100504.31
2022-08-19T09:52:55.206Z,100504.53
2022-08-19T09:55:24.183Z,100505.44
2022-08-19T09:57:50.842Z,100512.97
2022-08-19T10:00:18.760Z,100510.06
2022-08-19T10:02:45.790Z,100510.50
2022-08-19T10:05:31.382Z,100494.88
2022-08-19T10:07:58.395Z,100497.25
2022-08-19T10:10:25.106Z,100496.19
2022-08-19T10:12:51.946Z,100495.72
2022-08-19T10:15:29.211Z,100493.31
2022-08-19T10:17:56.526Z,100490.69
2022-08-19T10:20:25.536Z,100483.25
2022-08-19T10:22:52.082Z,100483.09
2022-08-19T10:25:20.159Z,100468.94
2022-08-19T10:27:48.394Z,100473.66
2022-08-19T10:30:18.167Z,100469.16
2022-08-19T10:32:46.932Z,100475.88
2022-08-19T10:35:14.525Z,100482.19
2022-08-19T10:37:56.707Z,100472.91
2022-08-19T10:40:24.421Z,100470.44
2022-08-19T10:42:51.028Z,100465.94
2022-08-19T10:45:17.977Z,100471.78
2022-08-19T10:47:44.515Z,100462.28
2022-08-19T10:50:30.088Z,100469.75
2022-08-19T10:52:56.775Z,100465.63
2022-08-19T10:55:43.718Z,100466.47
2022-08-19T10:58:15.164Z,100457.69
2022-08-19T11:00:44.072Z,100457.06
2022-08-19T11:03:11.165Z,100453.16
2022-08-19T11:05:39.747Z,100445.19
2022-08-19T11:08:21.221Z,100431.78
2022-08-19T11:10:50.563Z,100441.53
2022-08-19T11:13:17.220Z,100422.41
2022-08-19T11:15:45.058Z,100427.44
2022-08-19T11:18:13.513Z,100411.16
2022-08-19T11:20:40.268Z,100424.53
2022-08-19T11:23:07.408Z,100412.81
2022-08-19T11:25:34.342Z,100417.44
2022-08-19T11:28:00.864Z,100416.25
2022-08-19T11:30:28.980Z,100413.22
2022-08-19T11:32:55.751Z,100413.84
2022-08-19T11:35:24.368Z,100406.00
2022-08-19T11:37:50.930Z,100414.59
2022-08-19T11:40:19.033Z,100410.97
2022-08-19T11:42:57.200Z,100402.00
2022-08-19T11:45:25.597Z,100408.44
2022-08-19T11:47:52.117Z,100400.91
2022-08-19T11:50:18.988Z,100399.00
2022-08-19T11:52:46.267Z,100388.00
2022-08-19T11:55:14.682Z,100384.13
2022-08-19T11:57:44.736Z,100385.69
2022-08-19T12:00:14.275Z,100383.06
2022-08-19T12:02:41.264Z,100387.84
2022-08-19T12:05:12.573Z,100382.19
2022-08-19T12:07:40.761Z,100373.66
2022-08-19T12:10:07.747Z,100368.91
2022-08-19T12:12:35.086Z,100367.56
2022-08-19T12:15:03.771Z,100369.63
2022-08-19T12:17:31.878Z,100360.38
2022-08-19T12:19:58.534Z,100363.97
2022-08-19T12:22:25.138Z,100365.03
2022-08-19T12:24:54.155Z,100358.66
2022-08-19T12:27:35.678Z,100356.56
2022-08-19T12:30:09.752Z,100346.81
2022-08-19T12:32:36.399Z,100361.25
2022-08-19T12:35:02.983Z,100350.63
2022-08-19T12:37:30.628Z,100355.13
2022-08-19T12:40:00.565Z,100355.34
2022-08-19T12:42:27.219Z,100349.13
2022-08-19T12:44:53.912Z,100349.47
2022-08-19T12:47:21.394Z,100341.56
2022-08-19T12:49:55.563Z,100336.13
2022-08-19T12:52:26.817Z,100339.25
2022-08-19T12:54:55.346Z,100331.53
2022-08-19T12:57:32.454Z,100330.38
2022-08-19T13:00:00.901Z,100334.13
2022-08-19T13:02:38.974Z,100325.19
2022-08-19T13:05:09.675Z,100309.47
2022-08-19T13:07:37.119Z,100313.06
2022-08-19T13:10:08.826Z,100321.03
2022-08-19T13:12:39.046Z,100315.16
2022-08-19T13:15:10.555Z,100313.06
2022-08-19T13:17:39.062Z,100305.19
2022-08-19T13:20:08.702Z,100312.06
2022-08-19T13:22:37.117Z,100315.88
2022-08-19T13:25:06.275Z,100322.03
2022-08-19T13:27:33.112Z,100311.13
2022-08-19T13:30:18.929Z,100299.88
2022-08-19T13:33:09.409Z,100306.97
2022-08-19T13:35:42.894Z,100294.28
2022-08-19T13:38:12.135Z,100292.38
2022-08-19T13:40:39.793Z,100299.78
2022-08-19T13:43:23.104Z,100293.06
2022-08-19T13:45:57.579Z,100292.41
2022-08-19T13:48:27.294Z,100290.72
2022-08-19T13:50:57.307Z,100278.69
2022-08-19T13:53:24.627Z,100297.09
2022-08-19T13:55:52.074Z,100297.28
2022-08-19T13:58:18.576Z,100301.94
2022-08-19T14:00:47.256Z,100289.88
2022-08-19T14:03:14.394Z,100290.53
2022-08-19T14:05:40.960Z,100282.47
2022-08-19T14:08:07.600Z,100288.72
2022-08-19T14:10:34.359Z,100287.56
2022-08-19T14:13:03.948Z,100290.38
2022-08-19T14:15:31.271Z,100283.97
2022-08-19T14:17:58.481Z,100291.50
2022-08-19T14:20:25.860Z,100287.53
2022-08-19T14:22:54.009Z,100285.22
2022-08-19T14:25:25.019Z,100277.47
2022-08-19T14:27:51.932Z,100280.94
2022-08-19T14:30:24.198Z,100270.06
2022-08-19T14:32:50.668Z,100275.91
2022-08-19T14:35:17.513Z,100284.34
2022-08-19T14:37:46.129Z,100279.59
2022-08-19T14:40:15.318Z,100286.16
2022-08-19T14:42:42.820Z,100275.41
2022-08-19T14:45:10.708Z,100274.22
2022-08-19T14:47:38.286Z,100272.91
2022-08-19T14:50:11.372Z,100266.97
2022-08-19T14:52:45.942Z,100274.91
2022-08-19T14:55:12.648Z,100274.13
2022-08-19T14:57:41.797Z,100272.41
2022-08-19T15:00:14.521Z,100264.50
2022-08-19T15:02:42.323Z,100272.31
2022-08-19T15:05:09.461Z,100267.19
2022-08-19T15:07:36.192Z,100265.41
2022-08-19T15:10:02.775Z,100258.53
2022-08-19T15:12:29.277Z,100254.06
2022-08-19T15:14:56.785Z,100257.47
2022-08-19T15:17:43.449Z,100242.59
2022-08-19T15:20:13.526Z,100242.34
2022-08-19T15:22:41.022Z,100253.94
2022-08-19T15:25:09.564Z,100231.41
2022-08-19T15:27:39.783Z,100234.59
2022-08-19T15:30:11.201Z,100228.91
2022-08-19T15:32:38.881Z,100231.16
2022-08-19T15:35:07.888Z,100235.13
2022-08-19T15:37:37.437Z,100238.06
2022-08-19T15:40:09.019Z,100238.25
2022-08-19T15:42:36.766Z,100244.75
2022-08-19T15:45:06.563Z,100233.19
2022-08-19T15:47:34.810Z,100229.44
2022-08-19T15:50:06.137Z,100219.50
2022-08-19T15:52:34.066Z,100224.00
2022-08-19T15:55:07.132Z,100224.25
2022-08-19T15:57:51.911Z,100218.50
2022-08-19T16:00:37.062Z,100219.25
2022-08-19T16:03:22.475Z,100228.38
2022-08-19T16:06:08.307Z,100220.44
2022-08-19T16:08:49.029Z,100220.22
2022-08-19T16:11:21.090Z,100221.91
2022-08-19T16:13:51.858Z,100216.44
2022-08-19T16:16:22.048Z,100223.59
2022-08-19T16:18:49.389Z,100224.75
2022-08-19T16:21:17.331Z,100221.75
2022-08-19T16:23:46.560Z,100222.94
2022-08-19T16:26:15.415Z,100221.38
2022-08-19T16:28:58.333Z,100218.19
2022-08-19T16:31:25.445Z,100209.25
2022-08-19T16:33:52.188Z,100223.31
2022-08-19T16:36:18.922Z,100217.34
2022-08-19T16:38:49.384Z,100214.09
2022-08-19T16:41:16.147Z,100211.31
2022-08-19T16:43:42.637Z,100217.75
2022-08-19T16:46:10.300Z,100218.94
2022-08-19T16:48:42.861Z,100211.25
2022-08-19T16:51:10.612Z,100215.94
2022-08-19T16:53:38.971Z,100211.91
2022-08-19T16:56:05.637Z,100226.63
2022-08-19T16:58:35.323Z,100224.88
2022-08-19T17:01:06.533Z,100230.78
2022-08-19T17:03:36.071Z,100223.56
2022-08-19T17:06:18.990Z,100228.06
2022-08-19T17:09:18.227Z,100228.78
2022-08-19T17:11:53.029Z,100240.56
2022-08-19T17:14:20.279Z,100237.84
2022-08-19T17:16:47.752Z,100240.50
2022-08-19T17:19:18.020Z,100240.97
2022-08-19T17:21:44.579Z,100242.94
2022-08-19T17:24:11.175Z,100236.13
2022-08-19T17:26:39.323Z,100243.94
2022-08-19T17:29:06.299Z,100239.22
2022-08-19T17:31:36.737Z,100236.13
2022-08-19T17:34:07.104Z,100235.09
2022-08-19T17:36:39.148Z,100238.94
2022-08-19T17:39:05.803Z,100234.56
2022-08-19T17:41:36.054Z,100240.09
2022-08-19T17:44:04.862Z,100242.19
2022-08-19T17:46:31.715Z,100242.38
2022-08-19T17:48:58.312Z,100230.00
2022-08-19T17:51:34.029Z,100226.47
2022-08-19T17:54:01.821Z,100227.16
2022-08-19T17:56:31.145Z,100228.06
2022-08-19T17:59:00.687Z,100211.41
2022-08-19T18:01:43.010Z,100225.28
2022-08-19T18:04:17.212Z,100220.31
2022-08-19T18:06:45.771Z,100227.50
2022-08-19T18:09:13.883Z,100229.28
2022-08-19T18:11:41.059Z,100226.78
2022-08-19T18:14:07.720Z,100236.88
2022-08-19T18:16:34.458Z,100229.22
2022-08-19T18:19:01.216Z,100233.41
2022-08-19T18:21:31.801Z,100230.13
2022-08-19T18:24:01.738Z,100237.81
2022-08-19T18:26:30.628Z,100231.63
2022-08-19T18:28:59.312Z,100243.88
2022-08-19T18:31:25.801Z,100238.66
2022-08-19T18:33:55.245Z,100229.50
2022-08-19T18:36:50.133Z,100239.03
2022-08-19T18:39:29.243Z,100229.22
2022-08-19T18:42:14.918Z,100231.09
2022-08-19T18:45:00.138Z,100238.19
2022-08-19T18:47:45.495Z,100244.53
2022-08-19T18:50:17.772Z,100232.19
2022-08-19T18:52:44.273Z,100234.06
2022-08-19T18:55:10.763Z,100241.91
2022-08-19T18:57:37.575Z,100249.91
2022-08-19T19:00:05.494Z,100242.72
2022-08-19T19:02:38.531Z,100249.81
2022-08-19T19:05:07.731Z,100257.84
2022-08-19T19:07:36.435Z,100251.38
2022-08-19T19:10:04.404Z,100259.56
2022-08-19T19:12:32.519Z,100261.56
2022-08-19T19:14:59.207Z,100263.97
2022-08-19T19:17:28.030Z,100264.13
2022-08-19T19:19:54.539Z,100271.53
2022-08-19T19:22:22.439Z,100273.75
2022-08-19T19:24:50.837Z,100270.00
2022-08-19T19:27:22.850Z,100278.00
2022-08-19T19:29:52.764Z,100268.06
2022-08-19T19:32:22.951Z,100280.84
2022-08-19T19:34:49.605Z,100289.75
2022-08-19T19:37:17.011Z,100276.81
2022-08-19T19:39:46.365Z,100287.22
2022-08-19T19:42:20.542Z,100283.91
2022-08-19T19:44:50.377Z,100288.78
2022-08-19T19:47:18.859Z,100279.13
2022-08-19T19:52:38.364Z,100277.81
2022-08-19T19:55:09.463Z,100280.69
2022-08-19T19:57:39.358Z,100277.53
2022-08-19T20:00:11.262Z,100287.03
2022-08-19T20:02:37.849Z,100280.41
2022-08-19T20:05:07.197Z,100282.66
2022-08-19T20:07:53.279Z,100275.00
2022-08-19T20:10:19.849Z,100280.41
2022-08-19T20:12:46.334Z,100280.13
2022-08-19T20:15:14.905Z,100285.38
2022-08-19T20:17:42.690Z,100286.59
2022-08-19T20:20:14.390Z,100290.34
2022-08-19T20:22:45.839Z,100287.50
2022-08-19T20:25:14.465Z,100292.34
2022-08-19T20:27:43.922Z,100303.81
2022-08-19T20:30:25.936Z,100299.47
2022-08-19T20:32:56.484Z,100298.41
2022-08-19T20:35:23.444Z,100296.38
2022-08-19T20:37:53.826Z,100294.28
2022-08-19T20:40:34.101Z,100286.00
2022-08-19T20:43:12.385Z,100285.91
2022-08-19T20:45:42.158Z,100293.28
2022-08-19T20:48:10.673Z,100291.63
2022-08-19T20:50:37.354Z,100289.69
2022-08-19T20:53:13.314Z,100298.41
2022-08-19T20:55:40.126Z,100288.50
2022-08-19T20:58:07.733Z,100296.03
2022-08-19T21:00:34.324Z,100290.00
2022-08-19T21:03:03.891Z,100296.19
2022-08-19T21:05:31.914Z,100296.19
2022-08-19T21:07:58.677Z,100300.38
2022-08-19T21:10:27.298Z,100300.56
2022-08-19T21:13:04.599Z,100293.50
2022-08-19T21:15:31.233Z,100295.91
2022-08-19T21:17:58.272Z,100305.38
2022-08-19T21:20:25.266Z,100301.31
2022-08-19T21:22:51.819Z,100304.78
2022-08-19T21:25:18.305Z,100306.13
2022-08-19T21:27:44.856Z,100311.38
2022-08-19T21:30:27.509Z,100301.47
2022-08-19T21:33:02.045Z,100307.78
2022-08-19T21:35:28.910Z,100306.56
2022-08-19T21:37:55.675Z,100303.25
2022-08-19T21:40:22.329Z,100299.19
2022-08-19T21:42:49.090Z,100310.16
2022-08-19T21:45:17.437Z,100305.81
2022-08-19T21:47:44.509Z,100315.13
2022-08-19T21:50:11.514Z,100313.03
2022-08-19T21:52:40.193Z,100310.31
2022-08-19T21:55:08.573Z,100297.56
2022-08-19T21:57:35.710Z,100314.41
2022-08-19T22:00:03.146Z,100313.94
2022-08-19T22:02:29.611Z,100309.31
2022-08-19T22:04:56.128Z,100308.69
2022-08-19T22:07:22.697Z,100305.81
2022-08-19T22:09:50.503Z,100306.13
2022-08-19T22:12:29.075Z,100307.03
2022-08-19T22:14:56.999Z,100304.03
2022-08-19T22:17:23.975Z,100301.47
2022-08-19T22:19:52.798Z,100304.03
2022-08-19T22:22:24.088Z,100302.81
2022-08-19T22:24:54.309Z,100301.94
2022-08-19T22:27:21.169Z,100295.91
2022-08-19T22:29:47.751Z,100293.06
2022-08-19T22:32:28.046Z,100294.28
2022-08-19T22:34:58.142Z,100295.47
2022-08-19T22:37:24.719Z,100302.06
2022-08-19T22:39:51.580Z,100290.50
2022-08-19T22:42:20.185Z,100297.44
2022-08-19T22:44:46.784Z,100290.38
2022-08-19T22:47:14.554Z,100284.66
2022-08-19T22:49:41.090Z,100279.72
2022-08-19T22:52:19.784Z,100271.00
2022-08-19T22:54:48.391Z,100266.78
2022-08-19T22:57:15.409Z,100265.91
2022-08-19T22:59:42.228Z,100264.41
2022-08-19T23:02:09.665Z,100272.34
2022-08-19T23:04:36.271Z,100281.97
2022-08-19T23:07:03.350Z,100286.03
2022-08-19T23:09:30.485Z,100285.84
2022-08-19T23:11:57.223Z,100284.66
2022-08-19T23:14:23.689Z,100288.06
2022-08-19T23:16:51.366Z,100297.66
2022-08-19T23:19:21.487Z,100289.41
2022-08-19T23:21:48.969Z,100294.47
2022-08-19T23:24:15.661Z,100291.31
2022-08-19T23:27:04.689Z,100297.16
2022-08-19T23:29:50.370Z,100296.25
2022-08-19T23:32:18.444Z,100299.25
2022-08-19T23:34:45.282Z,100307.63
2022-08-19T23:37:11.960Z,100304.00
2022-08-19T23:39:38.559Z,100306.97
2022-08-19T23:42:12.492Z,100314.50
2022-08-19T23:44:51.960Z,100305.16
2022-08-19T23:47:21.135Z,100312.78
2022-08-19T23:49:48.722Z,100321.00
2022-08-19T23:52:15.233Z,100313.50
2022-08-19T23:54:43.687Z,100319.44
2022-08-19T23:57:13.422Z,100325.56
2022-08-19T23:59:42.517Z,100322.69
